Time;durP1;ratioP1;P1;durP2;ratioP2;P2;SDS_P1;SDS_P2;PMS_P1;PMS_P2;Temp;Humidity;BMP_temperature;BMP_pressure;BME280_temperature;BME280_humidity;BME280_pressure;Samples;Min_cycle;Max_cycle;Signal;HPM_P1;HPM_P2
2021/06/24 00:00:37;;;;;;;8.35;4.60;;;;;;;;;;4998356;28;20193;-44
2021/06/24 00:03:05;;;;;;;4.68;3.67;;;;;;;;;;4998409;28;20173;-45
2021/06/24 00:05:31;;;;;;;6.55;4.35;;;;;;;;;;5018088;28;20180;-45
2021/06/24 00:07:57;;;;;;;4.95;3.60;;;;;;;;;;5016580;28;20258;-45
2021/06/24 00:10:23;;;;;;;4.97;4.07;;;;;;;;;;5016947;28;20184;-44
2021/06/24 00:12:49;;;;;;;4.97;3.35;;;;;;;;;;5009671;28;20617;-45
2021/06/24 00:15:15;;;;;;;5.35;3.95;;;;;;;;;;5003064;28;20172;-45
2021/06/24 00:17:42;;;;;;;3.85;3.45;;;;;;;;;;5015510;28;20192;-44
2021/06/24 00:20:08;;;;;;;4.47;3.38;;;;;;;;;;5017611;28;20280;-45
2021/06/24 00:22:34;;;;;;;4.28;3.88;;;;;;;;;;5017577;28;20168;-45
2021/06/24 00:25:00;;;;;;;6.80;4.20;;;;;;;;;;5012811;28;20181;-45
2021/06/24 00:27:26;;;;;;;6.53;4.13;;;;;;;;;;5007744;28;20259;-45
2021/06/24 00:29:52;;;;;;;4.22;3.58;;;;;;;;;;5017423;28;20441;-45
2021/06/24 00:32:18;;;;;;;5.43;3.53;;;;;;;;;;5017379;28;20165;-45
2021/06/24 00:34:44;;;;;;;5.13;3.67;;;;;;;;;;5014432;28;20177;-45
2021/06/24 00:37:10;;;;;;;4.15;3.63;;;;;;;;;;5016699;28;20222;-44
2021/06/24 00:39:36;;;;;;;5.78;4.15;;;;;;;;;;5015620;28;20211;-45
2021/06/24 00:42:03;;;;;;;4.95;3.85;;;;;;;;;;5005841;28;20267;-45
2021/06/24 00:44:29;;;;;;;6.90;4.00;;;;;;;;;;5010621;28;20242;-44
2021/06/24 00:46:55;;;;;;;6.15;3.80;;;;;;;;;;5016481;28;20196;-44
2021/06/24 00:49:21;;;;;;;5.50;3.95;;;;;;;;;;4997927;28;20192;-45
2021/06/24 00:51:47;;;;;;;4.93;4.25;;;;;;;;;;4999823;28;20261;-44
2021/06/24 00:54:13;;;;;;;5.43;3.35;;;;;;;;;;5005391;28;20264;-45
2021/06/24 00:56:39;;;;;;;5.75;3.97;;;;;;;;;;5002472;28;20182;-46
2021/06/24 00:59:05;;;;;;;5.00;4.35;;;;;;;;;;5012277;28;20181;-45
2021/06/24 01:01:32;;;;;;;5.32;3.92;;;;;;;;;;5016544;28;20192;-45
2021/06/24 01:03:58;;;;;;;4.63;3.78;;;;;;;;;;5002886;28;20185;-45
2021/06/24 01:06:24;;;;;;;5.28;4.43;;;;;;;;;;5016228;28;20183;-45
2021/06/24 01:08:50;;;;;;;6.43;3.47;;;;;;;;;;5000874;28;20216;-45
2021/06/24 01:11:17;;;;;;;4.75;3.55;;;;;;;;;;5001145;28;20181;-44
2021/06/24 01:13:43;;;;;;;5.35;4.03;;;;;;;;;;5007764;28;20599;-45
2021/06/24 01:16:09;;;;;;;5.18;3.72;;;;;;;;;;5015426;28;20259;-44
2021/06/24 01:18:35;;;;;;;4.78;4.38;;;;;;;;;;5003854;28;20383;-45
2021/06/24 01:21:01;;;;;;;4.55;3.80;;;;;;;;;;4996945;28;20170;-45
2021/06/24 01:23:27;;;;;;;4.60;3.65;;;;;;;;;;5006920;28;20733;-45
2021/06/24 01:25:53;;;;;;;5.07;3.45;;;;;;;;;;5014327;28;20184;-45
2021/06/24 01:28:19;;;;;;;3.75;3.45;;;;;;;;;;5013580;28;20251;-45
2021/06/24 01:30:45;;;;;;;4.93;3.47;;;;;;;;;;5004507;28;20177;-45
2021/06/24 01:33:12;;;;;;;5.45;3.83;;;;;;;;;;4998037;28;20239;-45
2021/06/24 01:35:38;;;;;;;4.90;4.35;;;;;;;;;;4996351;28;20179;-45
2021/06/24 01:38:06;;;;;;;4.30;3.50;;;;;;;;;;4996085;28;20506;-45
2021/06/24 01:40:32;;;;;;;4.35;3.95;;;;;;;;;;5012917;28;20177;-45
2021/06/24 01:42:58;;;;;;;6.82;4.75;;;;;;;;;;5001164;28;20196;-45
2021/06/24 01:45:25;;;;;;;4.20;3.70;;;;;;;;;;4997343;28;20191;-45
2021/06/24 01:47:51;;;;;;;5.28;4.13;;;;;;;;;;4996648;28;20611;-45
2021/06/24 01:50:17;;;;;;;5.90;3.90;;;;;;;;;;4995272;28;20173;-45
2021/06/24 01:52:44;;;;;;;5.32;3.78;;;;;;;;;;5013378;28;20189;-45
2021/06/24 01:55:10;;;;;;;6.60;3.53;;;;;;;;;;5012400;28;20181;-45
2021/06/24 01:57:36;;;;;;;3.92;3.47;;;;;;;;;;5004043;28;20197;-45
2021/06/24 02:00:10;;;;;;;4.43;3.35;;;;;;;;;;5011085;28;20190;-45
2021/06/24 02:02:36;;;;;;;6.90;3.53;;;;;;;;;;5014404;28;20200;-45
2021/06/24 02:05:02;;;;;;;5.20;3.83;;;;;;;;;;5013461;28;20250;-45
2021/06/24 02:07:28;;;;;;;6.15;3.55;;;;;;;;;;5014048;28;20200;-44
2021/06/24 02:09:58;;;;;;;3.83;3.22;;;;;;;;;;5015055;28;20589;-44
2021/06/24 02:12:24;;;;;;;6.25;3.45;;;;;;;;;;5008662;28;20203;-45
2021/06/24 02:14:50;;;;;;;5.18;3.28;;;;;;;;;;4997202;28;20612;-45
2021/06/24 02:17:16;;;;;;;6.00;3.47;;;;;;;;;;4995239;28;20181;-45
2021/06/24 02:19:42;;;;;;;4.88;3.22;;;;;;;;;;4996421;28;20261;-44
2021/06/24 02:22:08;;;;;;;3.95;3.35;;;;;;;;;;5010410;28;20307;-45
2021/06/24 02:24:33;;;;;;;8.52;3.60;;;;;;;;;;5015202;28;20184;-44
2021/06/24 02:26:59;;;;;;;6.18;3.42;;;;;;;;;;5011539;28;20211;-44
2021/06/24 02:29:25;;;;;;;5.18;3.63;;;;;;;;;;5013168;28;20264;-44
2021/06/24 02:31:51;;;;;;;4.32;3.33;;;;;;;;;;5015167;28;20172;-45
2021/06/24 02:34:17;;;;;;;7.30;3.90;;;;;;;;;;5015166;28;20239;-45
2021/06/24 02:36:43;;;;;;;3.72;3.20;;;;;;;;;;5009624;28;20762;-45
2021/06/24 02:39:10;;;;;;;6.75;3.63;;;;;;;;;;4996390;28;20276;-44
2021/06/24 02:41:36;;;;;;;4.35;3.58;;;;;;;;;;4997727;28;20181;-45
2021/06/24 02:44:03;;;;;;;4.78;3.30;;;;;;;;;;5013260;28;20184;-45
2021/06/24 02:46:29;;;;;;;3.78;3.17;;;;;;;;;;5011747;28;20203;-45
2021/06/24 02:48:55;;;;;;;6.13;3.38;;;;;;;;;;4995311;28;20588;-45
2021/06/24 02:51:21;;;;;;;5.97;3.75;;;;;;;;;;4995639;28;20184;-45
2021/06/24 02:53:47;;;;;;;5.82;3.38;;;;;;;;;;4997004;28;20186;-45
2021/06/24 02:56:13;;;;;;;4.68;3.38;;;;;;;;;;5005856;28;20307;-45
2021/06/24 02:58:40;;;;;;;6.53;3.80;;;;;;;;;;4995367;28;20192;-45
2021/06/24 03:01:08;;;;;;;4.32;3.28;;;;;;;;;;5012776;28;20203;-45
2021/06/24 03:03:34;;;;;;;4.30;3.70;;;;;;;;;;5012865;28;20192;-45
2021/06/24 03:06:00;;;;;;;4.47;3.35;;;;;;;;;;5008635;28;20188;-45
2021/06/24 03:08:26;;;;;;;4.30;3.13;;;;;;;;;;5012192;28;20823;-45
2021/06/24 03:10:52;;;;;;;6.53;4.10;;;;;;;;;;5008672;28;20177;-45
2021/06/24 03:13:18;;;;;;;5.28;3.70;;;;;;;;;;5006773;28;20208;-45
2021/06/24 03:15:44;;;;;;;4.28;3.25;;;;;;;;;;4994925;28;20194;-45
2021/06/24 03:18:10;;;;;;;3.58;3.22;;;;;;;;;;5014511;28;20190;-45
2021/06/24 03:20:36;;;;;;;6.60;3.35;;;;;;;;;;5019777;28;20739;-45
2021/06/24 03:23:02;;;;;;;3.33;3.05;;;;;;;;;;5011007;28;20562;-45
2021/06/24 03:25:28;;;;;;;7.35;4.60;;;;;;;;;;5016941;28;20180;-45
2021/06/24 03:27:55;;;;;;;7.07;4.47;;;;;;;;;;5003388;28;20615;-45
2021/06/24 03:30:21;;;;;;;3.78;3.33;;;;;;;;;;4999867;28;20242;-45
2021/06/24 03:32:48;;;;;;;4.03;3.28;;;;;;;;;;4998524;28;20170;-45
2021/06/24 03:35:14;;;;;;;6.03;3.38;;;;;;;;;;4998652;28;20223;-45
2021/06/24 03:37:40;;;;;;;6.00;3.58;;;;;;;;;;5008614;28;20251;-45
2021/06/24 03:40:10;;;;;;;4.05;3.33;;;;;;;;;;5010082;28;20480;-45
2021/06/24 03:42:36;;;;;;;4.70;3.67;;;;;;;;;;4999282;28;20188;-45
2021/06/24 03:45:03;;;;;;;5.63;3.40;;;;;;;;;;4998681;28;20185;-45
2021/06/24 03:47:29;;;;;;;5.97;3.20;;;;;;;;;;5006428;28;20228;-44
2021/06/24 03:49:55;;;;;;;7.00;3.72;;;;;;;;;;5014698;28;20216;-45
2021/06/24 03:52:21;;;;;;;4.57;3.55;;;;;;;;;;5012131;28;20192;-45
2021/06/24 03:54:47;;;;;;;7.68;3.72;;;;;;;;;;5016662;28;20169;-45
2021/06/24 03:57:13;;;;;;;3.60;3.30;;;;;;;;;;5009028;28;20190;-45
2021/06/24 03:59:40;;;;;;;4.65;3.42;;;;;;;;;;4999823;28;20232;-45
2021/06/24 04:02:06;;;;;;;4.88;3.10;;;;;;;;;;5017026;28;20232;-45
2021/06/24 04:04:32;;;;;;;4.45;3.42;;;;;;;;;;5017718;28;20487;-45
2021/06/24 04:06:58;;;;;;;4.18;2.83;;;;;;;;;;5011951;28;20204;-45
2021/06/24 04:09:24;;;;;;;8.05;3.47;;;;;;;;;;5001695;28;20184;-45
2021/06/24 04:11:50;;;;;;;5.65;3.97;;;;;;;;;;5005024;28;20199;-45
2021/06/24 04:14:16;;;;;;;6.55;3.60;;;;;;;;;;5009792;28;20183;-44
2021/06/24 04:16:42;;;;;;;3.72;3.40;;;;;;;;;;5008055;28;20188;-44
2021/06/24 04:19:10;;;;;;;4.82;3.80;;;;;;;;;;4998061;28;20500;-44
2021/06/24 04:21:36;;;;;;;4.88;3.92;;;;;;;;;;4998123;28;20213;-45
2021/06/24 04:24:02;;;;;;;6.28;3.22;;;;;;;;;;4997785;28;20192;-44
2021/06/24 04:26:28;;;;;;;6.20;4.00;;;;;;;;;;5001835;28;20425;-45
2021/06/24 04:28:54;;;;;;;7.75;4.20;;;;;;;;;;5006394;28;20235;-45
2021/06/24 04:31:20;;;;;;;5.80;3.83;;;;;;;;;;5017128;28;20183;-45
2021/06/24 04:33:46;;;;;;;8.02;4.10;;;;;;;;;;5001053;28;20200;-45
2021/06/24 04:36:12;;;;;;;5.72;4.25;;;;;;;;;;4998211;28;20441;-45
2021/06/24 04:38:38;;;;;;;9.77;4.90;;;;;;;;;;5017060;28;20558;-44
2021/06/24 04:41:05;;;;;;;6.60;4.45;;;;;;;;;;5015224;28;20266;-45
2021/06/24 04:43:31;;;;;;;5.53;4.30;;;;;;;;;;5005839;28;20543;-45
2021/06/24 04:45:57;;;;;;;5.30;4.65;;;;;;;;;;5015158;28;20539;-44
2021/06/24 04:48:23;;;;;;;5.85;4.40;;;;;;;;;;4996999;28;20201;-44
2021/06/24 04:50:49;;;;;;;5.68;4.55;;;;;;;;;;4997179;28;20189;-44
2021/06/24 04:53:15;;;;;;;6.13;4.45;;;;;;;;;;4997474;28;20215;-44
2021/06/24 04:55:41;;;;;;;5.38;3.63;;;;;;;;;;4997037;28;20173;-44
2021/06/24 04:58:08;;;;;;;7.00;4.10;;;;;;;;;;4997035;28;20181;-44
2021/06/24 05:00:35;;;;;;;8.50;4.63;;;;;;;;;;4996740;28;20579;-44
2021/06/24 05:03:04;;;;;;;5.57;4.30;;;;;;;;;;4996824;28;20192;-44
2021/06/24 05:05:31;;;;;;;6.15;4.35;;;;;;;;;;4996896;28;20244;-45
2021/06/24 05:07:58;;;;;;;8.73;4.38;;;;;;;;;;5004717;28;20204;-45
2021/06/24 05:10:24;;;;;;;4.13;3.72;;;;;;;;;;4997147;28;20169;-45
2021/06/24 05:12:50;;;;;;;5.47;3.80;;;;;;;;;;5011378;28;20199;-44
2021/06/24 05:15:16;;;;;;;5.35;4.53;;;;;;;;;;4995884;28;20177;-44
2021/06/24 05:17:42;;;;;;;6.47;4.40;;;;;;;;;;5009884;28;20429;-44
2021/06/24 05:20:09;;;;;;;5.43;4.20;;;;;;;;;;5016178;28;20774;-45
2021/06/24 05:22:35;;;;;;;5.35;3.75;;;;;;;;;;5015775;28;20440;-45
2021/06/24 05:25:02;;;;;;;4.68;4.20;;;;;;;;;;5006487;28;20263;-45
2021/06/24 05:27:28;;;;;;;5.18;4.38;;;;;;;;;;5004410;28;20542;-46
2021/06/24 05:29:54;;;;;;;5.03;4.05;;;;;;;;;;4999160;28;20197;-46
2021/06/24 05:32:20;;;;;;;7.10;4.22;;;;;;;;;;4996403;28;20248;-45
2021/06/24 05:34:46;;;;;;;6.18;3.85;;;;;;;;;;4997825;28;20216;-45
2021/06/24 05:37:12;;;;;;;6.63;4.40;;;;;;;;;;5006316;28;20216;-45
2021/06/24 05:39:38;;;;;;;4.60;3.90;;;;;;;;;;4996093;28;20180;-45
2021/06/24 05:42:04;;;;;;;5.57;4.25;;;;;;;;;;5002033;28;20452;-44
2021/06/24 05:44:30;;;;;;;6.47;3.85;;;;;;;;;;5002042;28;20218;-44
2021/06/24 05:46:56;;;;;;;9.05;4.15;;;;;;;;;;5005727;28;20288;-44
2021/06/24 05:49:22;;;;;;;4.07;3.67;;;;;;;;;;4995762;28;20178;-44
2021/06/24 05:51:48;;;;;;;4.80;3.67;;;;;;;;;;4995933;28;20561;-44
2021/06/24 05:54:15;;;;;;;6.15;4.20;;;;;;;;;;4997824;28;20195;-44
2021/06/24 05:56:41;;;;;;;6.28;4.78;;;;;;;;;;5008432;28;20264;-45
2021/06/24 05:59:07;;;;;;;5.97;4.57;;;;;;;;;;4995760;28;20200;-44
2021/06/24 06:01:33;;;;;;;8.20;4.57;;;;;;;;;;4995989;28;20177;-44
2021/06/24 06:03:59;;;;;;;5.97;4.57;;;;;;;;;;4995801;28;20197;-44
2021/06/24 06:06:25;;;;;;;5.68;3.83;;;;;;;;;;4995226;28;20302;-44
2021/06/24 06:08:51;;;;;;;5.55;4.53;;;;;;;;;;4998284;28;20714;-44
2021/06/24 06:11:18;;;;;;;5.40;4.75;;;;;;;;;;5000062;28;20219;-44
2021/06/24 06:13:44;;;;;;;6.00;4.22;;;;;;;;;;5006584;28;20165;-44
2021/06/24 06:16:10;;;;;;;5.40;3.75;;;;;;;;;;4994776;28;20207;-44
2021/06/24 06:18:36;;;;;;;6.55;4.05;;;;;;;;;;4995310;28;20192;-44
2021/06/24 06:21:02;;;;;;;7.22;4.05;;;;;;;;;;5001312;28;20547;-44
2021/06/24 06:23:29;;;;;;;5.25;3.97;;;;;;;;;;5014585;28;20184;-44
2021/06/24 06:25:55;;;;;;;5.75;4.25;;;;;;;;;;5011969;28;20184;-44
2021/06/24 06:28:22;;;;;;;5.72;4.40;;;;;;;;;;5002828;28;20231;-44
2021/06/24 06:30:49;;;;;;;5.00;4.50;;;;;;;;;;5014800;28;20762;-44
2021/06/24 06:33:15;;;;;;;6.13;4.10;;;;;;;;;;5011923;28;20200;-44
2021/06/24 06:35:41;;;;;;;5.50;4.25;;;;;;;;;;5020925;28;20172;-44
2021/06/24 06:38:08;;;;;;;4.60;4.15;;;;;;;;;;5012867;28;20567;-44
2021/06/24 06:40:34;;;;;;;5.25;4.75;;;;;;;;;;5014860;28;20479;-44
2021/06/24 06:43:00;;;;;;;4.80;4.32;;;;;;;;;;5002037;28;20185;-44
2021/06/24 06:45:31;;;;;;;6.88;5.38;;;;;;;;;;5014109;28;20574;-44
2021/06/24 06:47:57;;;;;;;6.32;5.28;;;;;;;;;;5013890;28;20200;-44
2021/06/24 06:50:23;;;;;;;7.70;5.50;;;;;;;;;;5008070;28;20199;-44
2021/06/24 06:52:49;;;;;;;7.93;6.18;;;;;;;;;;5000982;28;20431;-44
2021/06/24 06:55:15;;;;;;;8.98;7.40;;;;;;;;;;5014734;28;20164;-44
2021/06/24 06:57:41;;;;;;;6.57;5.82;;;;;;;;;;5011609;28;20188;-44
2021/06/24 07:00:08;;;;;;;8.60;6.80;;;;;;;;;;5012759;28;20268;-44
2021/06/24 07:02:34;;;;;;;6.65;5.95;;;;;;;;;;5000777;28;20204;-44
2021/06/24 07:05:01;;;;;;;7.07;6.38;;;;;;;;;;5004181;28;20511;-44
2021/06/24 07:07:27;;;;;;;9.15;7.30;;;;;;;;;;4993710;28;20215;-44
2021/06/24 07:09:53;;;;;;;8.48;7.40;;;;;;;;;;5001042;28;20260;-44
2021/06/24 07:12:19;;;;;;;8.50;7.65;;;;;;;;;;5005497;28;20191;-44
2021/06/24 07:14:45;;;;;;;8.13;7.07;;;;;;;;;;5010694;28;20192;-44
2021/06/24 07:17:11;;;;;;;7.88;7.07;;;;;;;;;;5003406;28;20196;-44
2021/06/24 07:19:37;;;;;;;7.80;6.93;;;;;;;;;;5022745;28;20185;-44
2021/06/24 07:22:03;;;;;;;8.38;7.43;;;;;;;;;;5006056;28;20204;-44
2021/06/24 07:24:29;;;;;;;8.30;7.40;;;;;;;;;;4995088;28;20185;-44
2021/06/24 07:26:55;;;;;;;8.32;7.53;;;;;;;;;;5003673;28;20187;-44
2021/06/24 07:29:21;;;;;;;8.25;7.45;;;;;;;;;;5014235;28;20200;-44
2021/06/24 07:31:47;;;;;;;8.27;7.47;;;;;;;;;;5014411;28;20176;-44
2021/06/24 07:34:14;;;;;;;8.55;7.75;;;;;;;;;;5000140;28;20208;-44
2021/06/24 07:36:40;;;;;;;8.73;7.82;;;;;;;;;;4993930;28;20195;-44
2021/06/24 07:39:06;;;;;;;8.68;7.55;;;;;;;;;;4994598;28;20189;-44
2021/06/24 07:41:32;;;;;;;8.32;7.60;;;;;;;;;;4996063;28;20182;-44
2021/06/24 07:43:58;;;;;;;9.00;8.13;;;;;;;;;;5005161;28;20677;-44
2021/06/24 07:46:24;;;;;;;8.68;7.88;;;;;;;;;;5010580;28;20254;-44
2021/06/24 07:48:50;;;;;;;8.38;7.57;;;;;;;;;;5014077;28;20599;-44
2021/06/24 07:51:17;;;;;;;8.77;7.35;;;;;;;;;;5014051;28;20203;-44
2021/06/24 07:53:43;;;;;;;9.10;8.25;;;;;;;;;;5014350;28;20176;-44
2021/06/24 07:56:18;;;;;;;8.55;7.50;;;;;;;;;;5003802;28;20181;-44
2021/06/24 07:58:44;;;;;;;8.65;7.88;;;;;;;;;;5002132;28;20427;-44
2021/06/24 08:01:11;;;;;;;8.30;7.55;;;;;;;;;;4994651;28;20178;-44
2021/06/24 08:03:37;;;;;;;8.13;7.32;;;;;;;;;;4994169;28;20185;-44
2021/06/24 08:06:04;;;;;;;7.95;7.15;;;;;;;;;;4993943;28;20177;-44
2021/06/24 08:08:30;;;;;;;7.70;7.00;;;;;;;;;;4997702;28;20475;-44
2021/06/24 08:10:56;;;;;;;7.63;6.93;;;;;;;;;;5012359;28;20232;-44
2021/06/24 08:13:22;;;;;;;8.38;6.80;;;;;;;;;;5009529;28;20599;-44
2021/06/24 08:15:48;;;;;;;7.93;6.68;;;;;;;;;;4997447;28;20761;-44
2021/06/24 08:18:15;;;;;;;7.20;6.60;;;;;;;;;;4996445;28;20239;-44
2021/06/24 08:20:41;;;;;;;7.25;6.65;;;;;;;;;;5000831;28;20417;-44
2021/06/24 08:23:07;;;;;;;7.32;6.63;;;;;;;;;;5016887;28;20188;-44
2021/06/24 08:25:33;;;;;;;6.95;6.25;;;;;;;;;;5012665;28;20196;-44
2021/06/24 08:27:59;;;;;;;5.90;5.35;;;;;;;;;;5008052;28;20286;-44
2021/06/24 08:30:25;;;;;;;5.90;5.40;;;;;;;;;;5004248;28;20185;-44
2021/06/24 08:32:51;;;;;;;6.38;5.75;;;;;;;;;;5009922;28;20188;-44
2021/06/24 08:35:18;;;;;;;9.20;6.05;;;;;;;;;;5002176;28;20200;-44
2021/06/24 08:37:44;;;;;;;6.85;6.15;;;;;;;;;;5000285;28;20224;-44
2021/06/24 08:40:11;;;;;;;5.90;5.40;;;;;;;;;;5000631;28;20189;-44
2021/06/24 08:42:37;;;;;;;6.22;5.65;;;;;;;;;;5004730;28;20184;-45
2021/06/24 08:45:05;;;;;;;6.55;5.95;;;;;;;;;;5007309;28;20180;-45
2021/06/24 08:47:31;;;;;;;6.97;6.32;;;;;;;;;;5005242;28;20209;-44
2021/06/24 08:49:58;;;;;;;7.72;6.32;;;;;;;;;;5004761;28;20219;-44
2021/06/24 08:52:24;;;;;;;5.75;5.25;;;;;;;;;;5014534;28;20222;-44
2021/06/24 08:54:50;;;;;;;5.50;5.00;;;;;;;;;;5012581;28;20670;-44
2021/06/24 08:57:16;;;;;;;7.00;5.30;;;;;;;;;;5000514;28;20193;-44
2021/06/24 08:59:43;;;;;;;6.28;5.50;;;;;;;;;;4996481;28;20208;-44
2021/06/24 09:02:12;;;;;;;5.60;5.10;;;;;;;;;;4996710;28;20212;-44
2021/06/24 09:04:40;;;;;;;6.05;5.30;;;;;;;;;;4996328;28;20235;-44
2021/06/24 09:07:11;;;;;;;5.20;4.70;;;;;;;;;;4995991;28;20189;-44
2021/06/24 09:09:39;;;;;;;6.60;5.80;;;;;;;;;;4997916;28;20210;-44
2021/06/24 09:12:07;;;;;;;6.70;5.72;;;;;;;;;;5006690;28;20172;-44
2021/06/24 09:14:40;;;;;;;5.25;4.85;;;;;;;;;;5002082;28;20469;-44
2021/06/24 09:17:06;;;;;;;6.72;5.63;;;;;;;;;;4997646;28;20171;-44
2021/06/24 09:19:32;;;;;;;7.32;5.75;;;;;;;;;;4998608;28;20192;-44
2021/06/24 09:22:00;;;;;;;6.25;5.75;;;;;;;;;;4997440;28;20476;-44
2021/06/24 09:24:26;;;;;;;7.47;6.68;;;;;;;;;;4996538;28;20181;-44
2021/06/24 09:26:52;;;;;;;6.78;6.18;;;;;;;;;;4999794;28;20181;-44
2021/06/24 09:29:19;;;;;;;6.30;5.70;;;;;;;;;;5003840;28;20451;-44
2021/06/24 09:31:48;;;;;;;6.22;5.63;;;;;;;;;;5005821;28;20455;-44
2021/06/24 09:34:15;;;;;;;6.45;5.70;;;;;;;;;;5015469;28;20239;-44
2021/06/24 09:36:42;;;;;;;6.20;5.60;;;;;;;;;;5015463;28;20591;-44
2021/06/24 09:39:10;;;;;;;6.35;5.75;;;;;;;;;;5015329;28;20227;-44
2021/06/24 09:41:36;;;;;;;5.63;5.13;;;;;;;;;;5004391;28;20193;-44
2021/06/24 09:44:18;;;;;;;6.28;5.45;;;;;;;;;;5005987;28;20177;-44
2021/06/24 09:46:45;;;;;;;5.82;5.32;;;;;;;;;;4995727;28;20546;-44
2021/06/24 09:49:11;;;;;;;5.78;5.25;;;;;;;;;;5014215;28;20231;-44
2021/06/24 09:51:37;;;;;;;5.65;5.05;;;;;;;;;;4995896;28;20181;-44
2021/06/24 09:54:10;;;;;;;6.20;5.60;;;;;;;;;;4995817;28;20201;-44
2021/06/24 09:56:40;;;;;;;7.00;6.30;;;;;;;;;;5001156;28;20177;-44
2021/06/24 09:59:07;;;;;;;6.20;5.38;;;;;;;;;;4996014;28;20177;-44
2021/06/24 10:01:36;;;;;;;6.88;5.43;;;;;;;;;;4995996;28;20200;-44
2021/06/24 10:04:04;;;;;;;7.38;5.90;;;;;;;;;;4995667;28;20185;-44
2021/06/24 10:06:30;;;;;;;6.45;5.85;;;;;;;;;;4995209;28;20674;-44
2021/06/24 10:08:56;;;;;;;7.28;6.57;;;;;;;;;;5001175;28;20488;-44
2021/06/24 10:11:23;;;;;;;6.97;6.38;;;;;;;;;;5000953;28;20187;-44
2021/06/24 10:13:49;;;;;;;6.38;5.78;;;;;;;;;;5012817;28;20220;-44
2021/06/24 10:16:15;;;;;;;7.30;5.70;;;;;;;;;;5014808;28;20164;-44
2021/06/24 10:18:44;;;;;;;6.18;5.65;;;;;;;;;;5014363;28;20223;-44
2021/06/24 10:21:10;;;;;;;7.43;6.20;;;;;;;;;;5001582;28;20181;-44
2021/06/24 10:23:37;;;;;;;6.78;6.18;;;;;;;;;;4994732;28;20575;-44
2021/06/24 10:26:04;;;;;;;7.28;6.57;;;;;;;;;;4996116;28;20538;-44
2021/06/24 10:28:30;;;;;;;7.88;6.65;;;;;;;;;;5006209;28;20383;-44
2021/06/24 10:30:56;;;;;;;7.00;6.40;;;;;;;;;;5005822;28;20615;-44
2021/06/24 10:33:22;;;;;;;6.82;6.18;;;;;;;;;;5001234;28;20200;-44
2021/06/24 10:35:51;;;;;;;9.65;7.07;;;;;;;;;;4994683;28;20954;-44
2021/06/24 10:38:18;;;;;;;7.47;6.78;;;;;;;;;;5012936;28;20176;-44
2021/06/24 10:40:45;;;;;;;7.85;7.05;;;;;;;;;;5014862;28;20181;-44
2021/06/24 10:43:12;;;;;;;7.63;6.93;;;;;;;;;;5002503;28;20200;-44
2021/06/24 10:45:39;;;;;;;9.30;7.78;;;;;;;;;;5014136;28;20180;-44
2021/06/24 10:48:24;;;;;;;11.40;8.68;;;;;;;;;;5014370;28;20207;-44
2021/06/24 10:50:59;;;;;;;10.57;8.77;;;;;;;;;;5014977;28;20176;-44
2021/06/24 10:53:25;;;;;;;9.80;8.80;;;;;;;;;;5010658;28;20243;-44
2021/06/24 10:55:51;;;;;;;9.98;8.90;;;;;;;;;;4995960;28;20219;-44
2021/06/24 10:58:20;;;;;;;9.82;8.82;;;;;;;;;;5007163;28;20188;-44
2021/06/24 11:00:46;;;;;;;9.77;7.75;;;;;;;;;;4994759;28;20169;-44
2021/06/24 11:03:13;;;;;;;9.80;8.80;;;;;;;;;;5005133;28;20238;-44
2021/06/24 11:05:40;;;;;;;11.13;8.63;;;;;;;;;;5013829;28;20230;-44
2021/06/24 11:08:18;;;;;;;11.20;9.98;;;;;;;;;;5014327;28;20218;-44
2021/06/24 11:10:56;;;;;;;10.65;9.27;;;;;;;;;;5010777;28;20177;-44
2021/06/24 11:13:42;;;;;;;10.98;9.65;;;;;;;;;;5002838;28;20169;-44
2021/06/24 11:16:15;;;;;;;9.55;8.63;;;;;;;;;;5014051;28;20435;-44
2021/06/24 11:18:42;;;;;;;8.85;7.97;;;;;;;;;;5000181;28;20423;-44
2021/06/24 11:21:12;;;;;;;10.05;8.70;;;;;;;;;;4996187;28;20185;-44
2021/06/24 11:23:46;;;;;;;10.05;9.07;;;;;;;;;;5014218;28;20192;-44
2021/06/24 11:26:13;;;;;;;11.55;9.48;;;;;;;;;;5012305;28;20456;-44
2021/06/24 11:28:49;;;;;;;11.30;10.15;;;;;;;;;;5009501;28;20222;-44
2021/06/24 11:31:18;;;;;;;12.50;10.85;;;;;;;;;;5014474;28;20231;-44
2021/06/24 11:33:58;;;;;;;10.70;9.60;;;;;;;;;;5014514;28;20184;-44
2021/06/24 11:36:24;;;;;;;13.10;10.93;;;;;;;;;;5007594;28;20220;-44
2021/06/24 11:38:52;;;;;;;11.85;10.23;;;;;;;;;;5012194;28;20528;-44
2021/06/24 11:41:19;;;;;;;14.38;11.18;;;;;;;;;;5012731;28;20192;-44
2021/06/24 11:44:04;;;;;;;11.90;10.63;;;;;;;;;;5004915;28;20187;-44
2021/06/24 11:46:34;;;;;;;10.68;9.57;;;;;;;;;;5017785;28;20208;-44
2021/06/24 11:49:15;;;;;;;11.00;9.90;;;;;;;;;;5001455;28;20201;-44
2021/06/24 12:00:43;;;;;;;12.55;11.25;;;;;;;;;;4999033;28;20196;-44
2021/06/24 12:05:31;;;;;;;11.35;9.13;;;;;;;;;;5017491;28;20177;-44
2021/06/24 12:07:57;;;;;;;12.32;11.02;;;;;;;;;;5016642;28;20595;-44
2021/06/24 12:10:23;;;;;;;10.73;9.63;;;;;;;;;;5016603;28;20195;-44
2021/06/24 12:12:50;;;;;;;12.20;10.90;;;;;;;;;;5006031;28;20564;-44
2021/06/24 12:15:16;;;;;;;12.18;10.15;;;;;;;;;;5018619;28;20167;-44
2021/06/24 12:17:42;;;;;;;11.48;10.32;;;;;;;;;;5023845;28;20177;-44
2021/06/24 12:20:12;;;;;;;13.02;10.75;;;;;;;;;;4997579;28;20173;-44
2021/06/24 12:22:40;;;;;;;14.25;11.07;;;;;;;;;;4997866;28;20196;-44
2021/06/24 12:25:14;;;;;;;12.20;11.00;;;;;;;;;;5000461;28;20189;-44
2021/06/24 12:27:47;;;;;;;13.15;11.75;;;;;;;;;;5006007;28;20287;-44
2021/06/24 12:30:14;;;;;;;13.88;11.18;;;;;;;;;;4997339;28;20165;-44
2021/06/24 12:32:57;;;;;;;13.55;10.93;;;;;;;;;;4997561;28;20217;-44
2021/06/24 12:35:23;;;;;;;13.10;11.15;;;;;;;;;;4997637;28;20216;-44
2021/06/24 12:37:50;;;;;;;12.05;10.50;;;;;;;;;;5007109;28;20191;-44
2021/06/24 12:40:17;;;;;;;11.90;10.20;;;;;;;;;;5016881;28;20204;-44
2021/06/24 12:42:49;;;;;;;13.13;10.13;;;;;;;;;;5005521;28;20200;-44
2021/06/24 12:45:16;;;;;;;12.50;11.20;;;;;;;;;;5016259;28;20177;-44
2021/06/24 12:47:44;;;;;;;12.63;11.15;;;;;;;;;;5010225;28;20201;-44
2021/06/24 12:50:10;;;;;;;13.07;10.80;;;;;;;;;;4997430;28;20223;-44
2021/06/24 12:52:36;;;;;;;11.68;10.23;;;;;;;;;;5003017;28;20200;-44
2021/06/24 12:55:02;;;;;;;15.23;10.50;;;;;;;;;;5016147;28;20173;-44
2021/06/24 12:57:28;;;;;;;11.13;9.82;;;;;;;;;;5009834;28;20455;-44
2021/06/24 12:59:54;;;;;;;12.18;10.88;;;;;;;;;;5032999;28;20183;-44
2021/06/24 13:02:20;;;;;;;12.35;11.05;;;;;;;;;;5036261;28;20167;-44
2021/06/24 13:04:46;;;;;;;12.32;10.85;;;;;;;;;;5036551;28;20188;-44
2021/06/24 13:07:12;;;;;;;13.35;11.65;;;;;;;;;;5025069;28;20464;-44
2021/06/24 13:09:41;;;;;;;11.80;10.57;;;;;;;;;;5016279;28;20211;-44
2021/06/24 13:12:08;;;;;;;12.15;10.88;;;;;;;;;;5006355;28;20227;-44
2021/06/24 13:14:52;;;;;;;13.05;10.52;;;;;;;;;;5003271;28;20756;-44
2021/06/24 13:17:20;;;;;;;11.77;10.35;;;;;;;;;;4998568;28;20617;-44
2021/06/24 13:19:54;;;;;;;12.23;10.07;;;;;;;;;;5015515;28;20339;-44
2021/06/24 13:22:21;;;;;;;13.55;11.15;;;;;;;;;;5015494;28;20188;-44
2021/06/24 13:24:59;;;;;;;12.27;10.82;;;;;;;;;;5016366;28;20176;-44
2021/06/24 13:27:26;;;;;;;11.07;9.98;;;;;;;;;;5007077;28;20496;-44
2021/06/24 13:29:57;;;;;;;13.35;10.98;;;;;;;;;;5002502;28;20165;-44
2021/06/24 13:32:27;;;;;;;11.43;10.23;;;;;;;;;;5001627;28;20180;-44
2021/06/24 13:34:53;;;;;;;16.48;13.52;;;;;;;;;;5013575;28;20189;-44
2021/06/24 13:37:19;;;;;;;13.05;11.52;;;;;;;;;;4997701;28;20208;-44
2021/06/24 13:39:46;;;;;;;13.15;11.02;;;;;;;;;;4996503;28;20185;-44
2021/06/24 13:42:12;;;;;;;12.18;10.95;;;;;;;;;;5006490;28;20255;-44
2021/06/24 13:44:38;;;;;;;11.70;10.50;;;;;;;;;;5011503;28;20192;-44
2021/06/24 13:47:04;;;;;;;12.10;10.40;;;;;;;;;;5004309;28;20580;-44
2021/06/24 13:49:31;;;;;;;13.25;10.80;;;;;;;;;;5006399;28;20181;-44
2021/06/24 13:51:57;;;;;;;12.63;10.65;;;;;;;;;;5020483;28;20203;-44
2021/06/24 13:54:25;;;;;;;12.88;9.32;;;;;;;;;;5035560;28;20563;-44
2021/06/24 13:56:51;;;;;;;15.63;11.18;;;;;;;;;;5021402;28;20177;-44
2021/06/24 13:59:17;;;;;;;11.85;10.27;;;;;;;;;;5009279;28;20853;-44
2021/06/24 14:01:45;;;;;;;10.77;9.68;;;;;;;;;;5015665;28;20176;-44
2021/06/24 14:04:11;;;;;;;12.18;9.65;;;;;;;;;;5015070;28;20200;-44
2021/06/24 14:06:37;;;;;;;12.40;9.88;;;;;;;;;;5002392;28;20180;-44
2021/06/24 14:09:08;;;;;;;10.50;8.88;;;;;;;;;;5011596;28;20263;-44
2021/06/24 14:11:35;;;;;;;12.32;9.50;;;;;;;;;;4997190;28;20263;-44
2021/06/24 14:14:02;;;;;;;11.60;8.98;;;;;;;;;;4999242;28;20177;-44
2021/06/24 14:16:28;;;;;;;11.73;9.95;;;;;;;;;;5000609;28;20264;-44
2021/06/24 14:18:54;;;;;;;13.40;10.13;;;;;;;;;;5023942;28;20339;-44
2021/06/24 14:21:21;;;;;;;13.95;10.50;;;;;;;;;;4999108;28;20461;-44
2021/06/24 14:23:49;;;;;;;12.98;9.68;;;;;;;;;;5004236;28;20246;-44
2021/06/24 14:26:16;;;;;;;15.20;10.00;;;;;;;;;;4999451;28;20200;-44
2021/06/24 14:28:43;;;;;;;13.23;9.98;;;;;;;;;;5002707;28;20637;-44
2021/06/24 14:31:09;;;;;;;13.23;9.38;;;;;;;;;;5003686;28;20618;-44
2021/06/24 14:33:35;;;;;;;12.25;10.27;;;;;;;;;;5005587;28;20189;-44
2021/06/24 14:36:02;;;;;;;12.55;10.18;;;;;;;;;;5004591;28;20563;-44
2021/06/24 14:38:28;;;;;;;11.88;10.65;;;;;;;;;;5003986;28;20177;-44
2021/06/24 14:40:54;;;;;;;10.65;9.45;;;;;;;;;;5002430;28;20672;-44
2021/06/24 14:43:20;;;;;;;12.65;9.90;;;;;;;;;;5002109;28;20251;-44
2021/06/24 14:45:46;;;;;;;11.88;10.05;;;;;;;;;;5003241;28;20274;-44
2021/06/24 14:48:12;;;;;;;13.10;10.73;;;;;;;;;;5001787;28;20283;-44